createdAt,value
2022-11-10T00:00:14.000Z,5.7
2022-11-10T00:01:30.000Z,8.7
2022-11-10T00:02:46.000Z,13.1
2022-11-10T00:04:02.000Z,13.1
2022-11-10T00:05:18.000Z,11.4
2022-11-10T00:06:34.000Z,9
2022-11-10T00:07:50.000Z,8.1
2022-11-10T00:09:07.274Z,5.7
2022-11-10T00:10:23.000Z,15.2
2022-11-10T00:11:39.000Z,9.1
2022-11-10T00:12:54.000Z,17.1
2022-11-10T00:14:10.000Z,8.7
2022-11-10T00:15:26.000Z,7.1
2022-11-10T00:16:42.000Z,11.8
2022-11-10T00:17:59.000Z,10.1
2022-11-10T00:19:15.000Z,7.3
2022-11-10T00:20:31.000Z,2.3
2022-11-10T00:21:47.000Z,9.2
2022-11-10T00:23:03.000Z,20.3
2022-11-10T00:24:19.000Z,8.8
2022-11-10T00:25:35.000Z,11
2022-11-10T00:26:52.000Z,10.6
2022-11-10T00:28:08.468Z,10.1
2022-11-10T00:29:23.000Z,19
2022-11-10T00:30:39.000Z,14
2022-11-10T00:31:55.000Z,9.7
2022-11-10T00:33:11.000Z,12.3
2022-11-10T00:34:27.000Z,8.9
2022-11-10T00:35:44.000Z,13.9
2022-11-10T00:37:00.000Z,8.1
2022-11-10T00:38:16.000Z,10.5
2022-11-10T00:39:32.000Z,7.9
2022-11-10T00:40:48.936Z,12.5
2022-11-10T00:42:04.000Z,7.7
2022-11-10T00:43:21.000Z,12.9
2022-11-10T00:44:37.000Z,12.7
2022-11-10T00:45:52.000Z,13.6
2022-11-10T00:47:08.000Z,12.5
2022-11-10T00:48:24.000Z,10.9
2022-11-10T00:49:40.968Z,10.2
2022-11-10T00:50:56.000Z,12.6
2022-11-10T00:52:13.000Z,10.2
2022-11-10T00:53:29.000Z,15.1
2022-11-10T00:54:45.000Z,9.7
2022-11-10T00:56:01.000Z,21.9
2022-11-10T00:57:17.000Z,13.2
2022-11-10T00:58:33.000Z,9.2
2022-11-10T00:59:49.000Z,10.2
2022-11-10T01:01:06.000Z,14.3
2022-11-10T01:02:21.000Z,19.2
2022-11-10T01:03:37.000Z,15.3
2022-11-10T01:04:53.000Z,10.4
2022-11-10T01:06:09.000Z,13
2022-11-10T01:07:26.025Z,16
2022-11-10T01:08:41.000Z,11.2
2022-11-10T01:09:58.000Z,18.5
2022-11-10T01:11:14.000Z,12.3
2022-11-10T01:12:30.000Z,17.8
2022-11-10T01:13:46.000Z,16
2022-11-10T01:15:02.000Z,16.6
2022-11-10T01:16:18.000Z,17.2
2022-11-10T01:17:34.000Z,14.8
2022-11-10T01:18:50.000Z,17.8
2022-11-10T01:20:06.000Z,16.4
2022-11-10T01:21:22.000Z,17.7
2022-11-10T01:22:38.000Z,12.4
2022-11-10T01:23:54.000Z,14.2
2022-11-10T01:25:11.092Z,14.2
2022-11-10T01:26:26.000Z,14.1
2022-11-10T01:27:43.000Z,14.6
2022-11-10T01:28:59.000Z,18
2022-11-10T01:30:15.000Z,19.3
2022-11-10T01:31:31.000Z,19.1
2022-11-10T01:32:47.000Z,15
2022-11-10T01:34:03.000Z,16.8
2022-11-10T01:35:19.000Z,16.8
2022-11-10T01:36:35.406Z,13.8
2022-11-10T01:37:51.000Z,14.6
2022-11-10T01:39:07.000Z,18.5
2022-11-10T01:40:23.830Z,19
2022-11-10T01:41:39.000Z,18.1
2022-11-10T01:42:55.147Z,18.2
2022-11-10T01:44:11.000Z,20.1
2022-11-10T01:45:27.434Z,14.1
2022-11-10T01:46:43.000Z,17
2022-11-10T01:47:59.000Z,16.3
2022-11-10T01:49:15.000Z,32.2
2022-11-10T01:50:31.000Z,23
2022-11-10T01:51:47.000Z,17.1
2022-11-10T01:53:04.000Z,14.8
2022-11-10T01:54:20.000Z,13
2022-11-10T01:55:36.000Z,17.8
2022-11-10T01:56:52.000Z,15.3
2022-11-10T01:58:08.000Z,14.8
2022-11-10T01:59:23.000Z,18.7
2022-11-10T02:00:39.000Z,14.4
2022-11-10T02:01:56.000Z,17.5
2022-11-10T02:03:12.484Z,9.6
2022-11-10T02:04:28.000Z,25.8
2022-11-10T02:05:44.000Z,13.3
2022-11-10T02:07:00.926Z,20.5
2022-11-10T02:08:16.000Z,15.7
2022-11-10T02:09:32.000Z,12.6
2022-11-10T02:10:49.000Z,22.2
2022-11-10T02:12:05.000Z,17
2022-11-10T02:13:21.000Z,17.3
2022-11-10T02:14:37.000Z,16.4
2022-11-10T02:15:52.000Z,18
2022-11-10T02:17:08.000Z,28.6
2022-11-10T02:19:41.000Z,15
2022-11-10T02:20:57.000Z,14.2
2022-11-10T02:22:13.000Z,12.6
2022-11-10T02:23:29.000Z,11.7
2022-11-10T02:24:45.000Z,12.2
2022-11-10T02:26:02.118Z,11.5
2022-11-10T02:27:18.000Z,18.9
2022-11-10T02:28:34.000Z,10.7
2022-11-10T02:29:50.000Z,8.4
2022-11-10T02:31:06.000Z,10.4
2022-11-10T02:32:21.000Z,11.6
2022-11-10T02:33:37.000Z,11.6
2022-11-10T02:34:53.000Z,16.7
2022-11-10T02:36:10.294Z,17.1
2022-11-10T02:37:26.439Z,13.5
2022-11-10T02:38:42.000Z,19.2
2022-11-10T02:39:58.000Z,18.2
2022-11-10T02:41:14.000Z,16.5
2022-11-10T02:42:30.000Z,23.2
2022-11-10T02:43:47.169Z,20.2
2022-11-10T02:45:03.000Z,14.6
2022-11-10T02:46:19.000Z,21.3
2022-11-10T02:47:35.000Z,31.8
2022-11-10T02:48:50.000Z,27.4
2022-11-10T02:50:06.000Z,18
2022-11-10T02:51:22.000Z,17.8
2022-11-10T02:52:39.202Z,32.1
2022-11-10T02:53:55.000Z,13.3
2022-11-10T02:55:11.000Z,17.3
2022-11-10T02:56:27.000Z,20.2
2022-11-10T02:57:43.000Z,16.9
2022-11-10T02:58:59.000Z,23.6
2022-11-10T03:00:15.000Z,21.9
2022-11-10T03:01:31.000Z,22.7
2022-11-10T03:02:48.000Z,25.5
2022-11-10T03:04:04.000Z,21.4
2022-11-10T03:05:19.000Z,17.9
2022-11-10T03:06:35.000Z,21.1
2022-11-10T03:07:51.000Z,28.8
2022-11-10T03:09:07.000Z,31.5
2022-11-10T03:10:24.256Z,24.5
2022-11-10T03:11:40.000Z,23.1
2022-11-10T03:12:56.000Z,20.3
2022-11-10T03:14:12.000Z,25.5
2022-11-10T03:15:28.000Z,19.6
2022-11-10T03:16:44.984Z,34.1
2022-11-10T03:18:00.000Z,25.9
2022-11-10T03:19:17.272Z,22.1
2022-11-10T03:20:33.000Z,25.8
2022-11-10T03:21:48.575Z,25.2
2022-11-10T03:23:04.000Z,23.3
2022-11-10T03:24:20.000Z,24.7
2022-11-10T03:25:36.000Z,34.8
2022-11-10T03:26:52.000Z,27.2
2022-11-10T03:28:09.000Z,32.2
2022-11-10T03:29:25.000Z,18.5
2022-11-10T03:30:41.000Z,27.2
2022-11-10T03:31:57.748Z,31.3
2022-11-10T03:33:13.000Z,28.9
2022-11-10T03:34:29.000Z,31.8
2022-11-10T03:35:45.000Z,32.7
2022-11-10T03:37:02.323Z,20.8
2022-11-10T03:38:17.000Z,43.3
2022-11-10T03:39:33.621Z,21.7
2022-11-10T03:40:49.000Z,25.1
2022-11-10T03:42:05.000Z,28.8
2022-11-10T03:43:21.000Z,34.5
2022-11-10T03:44:38.207Z,35.9
2022-11-10T03:45:54.367Z,30.7
2022-11-10T03:47:10.000Z,22.9
2022-11-10T03:48:26.000Z,27.4
2022-11-10T03:49:42.799Z,33.3
2022-11-10T03:50:58.000Z,22.1
2022-11-10T03:52:15.083Z,32.4
2022-11-10T03:53:31.000Z,20.8
2022-11-10T03:54:46.000Z,27.9
2022-11-10T03:56:02.533Z,17.1
2022-11-10T03:57:18.000Z,28.3
2022-11-10T03:58:34.000Z,22.7
2022-11-10T03:59:50.000Z,26.4
2022-11-10T04:01:06.000Z,31.5
2022-11-10T04:02:23.000Z,27.9
2022-11-10T04:03:39.000Z,25
2022-11-10T04:04:55.000Z,25.1
2022-11-10T04:06:11.000Z,24.3
2022-11-10T04:07:27.000Z,28.6
2022-11-10T04:08:43.989Z,29.5
2022-11-10T04:09:59.000Z,34.5
2022-11-10T04:11:15.000Z,26.4
2022-11-10T04:12:31.000Z,21.8
2022-11-10T04:13:47.580Z,23.5
2022-11-10T04:15:03.000Z,26.4
2022-11-10T04:16:19.000Z,18.5
2022-11-10T04:17:35.000Z,20.2
2022-11-10T04:18:51.000Z,24.4
2022-11-10T04:20:08.305Z,31
2022-11-10T04:21:24.000Z,34.6
2022-11-10T04:22:40.000Z,38
2022-11-10T04:23:56.000Z,18.7
2022-11-10T04:25:12.000Z,34.8
2022-11-10T04:26:28.000Z,20.6
2022-11-10T04:27:43.000Z,23.6
2022-11-10T04:29:00.000Z,26.2
2022-11-10T04:30:16.000Z,25.5
2022-11-10T04:31:32.000Z,35.5
2022-11-10T04:32:48.000Z,32
2022-11-10T04:34:04.000Z,27.7
2022-11-10T04:35:20.000Z,27.2
2022-11-10T04:36:36.000Z,30.8
2022-11-10T04:37:53.359Z,19.5
2022-11-10T04:39:09.511Z,23.4
2022-11-10T04:40:25.000Z,36.5
2022-11-10T04:41:41.000Z,33.7
2022-11-10T04:42:57.000Z,36.4
2022-11-10T04:44:13.105Z,22.1
2022-11-10T04:45:29.000Z,39
2022-11-10T04:46:45.392Z,23.7
2022-11-10T04:48:01.000Z,42.7
2022-11-10T04:49:17.000Z,33.1
2022-11-10T04:50:33.000Z,28.9
2022-11-10T04:51:49.000Z,24.3
2022-11-10T04:53:05.000Z,27
2022-11-10T04:54:22.000Z,27.5
2022-11-10T04:55:38.000Z,35.1
2022-11-10T04:56:54.000Z,30.6
2022-11-10T04:58:10.000Z,24.7
2022-11-10T04:59:26.850Z,39.3
2022-11-10T05:00:41.000Z,33.2
2022-11-10T05:01:57.000Z,31.7
2022-11-10T05:03:14.000Z,32.3
2022-11-10T05:04:30.000Z,27.1
2022-11-10T05:05:46.000Z,29.5
2022-11-10T05:07:02.000Z,40.2
2022-11-10T05:08:18.883Z,26.2
2022-11-10T05:09:34.000Z,26.6
2022-11-10T05:10:50.000Z,23.7
2022-11-10T05:12:07.000Z,27.3
2022-11-10T05:13:23.000Z,22.5
2022-11-10T05:14:39.000Z,24.9
2022-11-10T05:15:55.000Z,34.2
2022-11-10T05:17:10.000Z,32.6
2022-11-10T05:18:26.000Z,23.5
2022-11-10T05:19:42.000Z,33.4
2022-11-10T05:20:59.352Z,25.9
2022-11-10T05:22:15.504Z,31.4
2022-11-10T05:23:31.000Z,26.3
2022-11-10T05:24:47.000Z,24.3
2022-11-10T05:26:03.000Z,20.2
2022-11-10T05:27:20.078Z,24.8
2022-11-10T05:28:35.000Z,32.3
2022-11-10T05:29:52.000Z,24.8
2022-11-10T05:31:08.000Z,25.9
2022-11-10T05:32:24.000Z,21.3
2022-11-10T05:33:39.000Z,31.7
2022-11-10T05:34:55.000Z,24.8
2022-11-10T05:36:11.000Z,28.3
2022-11-10T05:37:28.000Z,29.1
2022-11-10T05:38:44.399Z,33.6
2022-11-10T05:40:00.000Z,23.9
2022-11-10T05:41:16.000Z,24.3
2022-11-10T05:42:32.000Z,34.5
2022-11-10T05:43:48.000Z,25.9
2022-11-10T05:45:04.000Z,26.9
2022-11-10T05:46:21.000Z,21.2
2022-11-10T05:47:37.433Z,19
2022-11-10T05:48:53.000Z,33.2
2022-11-10T05:50:08.745Z,14.4
2022-11-10T05:51:24.000Z,17.7
2022-11-10T05:52:40.000Z,18.6
2022-11-10T05:53:57.164Z,27.1
2022-11-10T05:55:13.000Z,18.7
2022-11-10T05:56:29.000Z,32.9
2022-11-10T05:57:44.000Z,25.2
2022-11-10T05:59:00.000Z,25.9
2022-11-10T06:00:16.909Z,19.2
2022-11-10T06:01:32.000Z,25.2
2022-11-10T06:02:49.208Z,29.3
2022-11-10T06:04:05.000Z,36.2
2022-11-10T06:05:21.000Z,27.1
2022-11-10T06:06:37.639Z,29.6
2022-11-10T06:07:53.000Z,26.6
2022-11-10T06:09:09.000Z,29.1
2022-11-10T06:10:25.000Z,21.9
2022-11-10T06:11:42.000Z,31.3
2022-11-10T06:12:58.000Z,24.9
2022-11-10T06:14:13.000Z,28.8
2022-11-10T06:15:29.000Z,38.3
2022-11-10T06:16:45.000Z,36
2022-11-10T06:18:01.000Z,45.7
2022-11-10T06:19:17.000Z,43.7
2022-11-10T06:20:34.000Z,42.3
2022-11-10T06:21:50.000Z,48.8
2022-11-10T06:23:06.000Z,56.1
2022-11-10T06:24:22.709Z,56.1
2022-11-10T06:25:38.000Z,42.9
2022-11-10T06:26:54.000Z,37.7
2022-11-10T06:28:10.000Z,48.4
2022-11-10T06:29:27.000Z,46.5
2022-11-10T06:30:42.454Z,47.9
2022-11-10T06:31:58.000Z,52.5
2022-11-10T06:33:14.000Z,46.6
2022-11-10T06:34:30.896Z,58
2022-11-10T06:35:46.000Z,45.6
2022-11-10T06:37:02.000Z,53.4
2022-11-10T06:38:19.000Z,48.2
2022-11-10T06:39:35.000Z,47.1
2022-11-10T06:40:51.000Z,52
2022-11-10T06:42:07.000Z,51.2
2022-11-10T06:43:23.000Z,49.9
2022-11-10T06:44:39.000Z,54.2
2022-11-10T06:45:55.000Z,51.2
2022-11-10T06:47:11.000Z,42.6
2022-11-10T06:48:27.000Z,51.9
2022-11-10T06:49:43.666Z,45.4
2022-11-10T06:50:59.000Z,55
2022-11-10T06:52:15.000Z,46.8
2022-11-10T06:53:32.109Z,50.2
2022-11-10T06:54:48.000Z,52.7
2022-11-10T06:56:04.000Z,50.4
2022-11-10T06:57:20.000Z,54.1
2022-11-10T06:58:36.000Z,62.9
2022-11-10T06:59:52.000Z,51.9
2022-11-10T07:01:08.000Z,53.6
2022-11-10T07:02:25.139Z,51.4
2022-11-10T07:03:40.000Z,59.2
2022-11-10T07:04:56.000Z,50
2022-11-10T07:06:12.000Z,57.9
2022-11-10T07:07:28.000Z,57.4
2022-11-10T07:08:44.000Z,49.6
2022-11-10T07:10:00.000Z,39.5
2022-11-10T07:11:16.000Z,48.2
2022-11-10T07:12:33.000Z,51.3
2022-11-10T07:13:49.474Z,56.5
2022-11-10T07:15:05.621Z,44.9
2022-11-10T07:16:21.763Z,57.9
2022-11-10T07:17:37.915Z,48.5
2022-11-10T07:18:54.073Z,47.5
2022-11-10T07:20:08.000Z,42.5
2022-11-10T07:21:25.380Z,54.8
2022-11-10T07:22:41.000Z,60.5
2022-11-10T07:23:57.662Z,55.3
2022-11-10T07:25:13.000Z,51.4
2022-11-10T07:26:29.000Z,53.1
2022-11-10T07:27:46.102Z,50.8
2022-11-10T07:29:02.253Z,44.4
2022-11-10T07:30:18.396Z,55.1
2022-11-10T07:31:34.000Z,45.8
2022-11-10T07:32:50.000Z,56.4
2022-11-10T07:34:06.000Z,45.7
2022-11-10T07:35:22.000Z,41.1
2022-11-10T07:36:37.000Z,47.3
2022-11-10T07:37:54.000Z,49.6
2022-11-10T07:39:10.437Z,56
2022-11-10T07:40:26.000Z,52.3
2022-11-10T07:41:42.735Z,49.4
2022-11-10T07:42:58.000Z,45.1
2022-11-10T07:44:14.000Z,58.3
2022-11-10T07:45:30.000Z,46.4
2022-11-10T07:46:47.321Z,45.1
2022-11-10T07:48:03.000Z,48.9
2022-11-10T07:49:19.617Z,47.8
2022-11-10T07:50:35.000Z,38.8
2022-11-10T07:51:51.904Z,40.9
2022-11-10T07:53:06.000Z,44.9
2022-11-10T07:54:22.000Z,39.2
2022-11-10T07:55:39.000Z,40.4
2022-11-10T07:56:55.000Z,50.4
2022-11-10T07:58:11.000Z,46.1
2022-11-10T07:59:27.000Z,42.6
2022-11-10T08:00:43.000Z,40.1
2022-11-10T08:01:59.000Z,45.9
2022-11-10T08:03:16.000Z,50.7
2022-11-10T08:04:32.000Z,39
2022-11-10T08:05:48.000Z,40.8
2022-11-10T08:07:04.000Z,38.9
2022-11-10T08:08:20.000Z,46.2
2022-11-10T08:09:35.000Z,36.6
2022-11-10T08:10:51.000Z,50.9
2022-11-10T08:12:08.000Z,45.3
2022-11-10T08:13:24.000Z,36
2022-11-10T08:14:40.000Z,36.2
2022-11-10T08:15:56.000Z,38.5
2022-11-10T08:17:12.873Z,41.9
2022-11-10T08:18:28.000Z,52.2
2022-11-10T08:19:44.000Z,50.2
2022-11-10T08:21:01.000Z,31.2
2022-11-10T08:22:17.000Z,47.8
2022-11-10T08:23:33.000Z,54.9
2022-11-10T08:24:49.000Z,44.4
2022-11-10T08:26:04.000Z,44.1
2022-11-10T08:27:20.000Z,50.3
2022-11-10T08:28:36.000Z,45.9
2022-11-10T08:29:53.000Z,40.5
2022-11-10T08:31:09.000Z,42.9
2022-11-10T08:32:25.000Z,35.7
2022-11-10T08:33:41.000Z,40.9
2022-11-10T08:34:57.949Z,40.6
2022-11-10T08:36:13.000Z,41
2022-11-10T08:37:30.000Z,41.5
2022-11-10T08:38:46.000Z,41.8
2022-11-10T08:40:02.622Z,49.6
2022-11-10T08:41:18.000Z,53.1
2022-11-10T08:42:33.847Z,40.3
2022-11-10T08:43:49.000Z,38.9
2022-11-10T08:45:05.000Z,39.1
2022-11-10T08:46:22.000Z,32.7
2022-11-10T08:47:38.432Z,43.4
2022-11-10T08:48:54.000Z,40.7
2022-11-10T08:50:10.000Z,28.9
2022-11-10T08:51:26.000Z,34.9
2022-11-10T08:52:42.000Z,43.8
2022-11-10T08:53:58.000Z,41.2
2022-11-10T08:55:15.314Z,34.2
2022-11-10T08:56:31.000Z,36.3
2022-11-10T08:57:47.000Z,40.7
2022-11-10T08:59:02.000Z,43.8
2022-11-10T09:00:18.000Z,35.7
2022-11-10T09:01:34.000Z,36.1
2022-11-10T09:02:50.000Z,36.5
2022-11-10T09:04:07.000Z,37
2022-11-10T09:05:23.501Z,42.7
2022-11-10T09:06:39.665Z,38.5
2022-11-10T09:07:55.000Z,41.1
2022-11-10T09:09:11.000Z,39
2022-11-10T09:10:27.000Z,35.4
2022-11-10T09:11:44.000Z,49.3
2022-11-10T09:13:00.000Z,42.5
2022-11-10T09:14:16.000Z,40.5
2022-11-10T09:15:31.000Z,36.6
2022-11-10T09:16:47.841Z,33.7
2022-11-10T09:18:03.000Z,35.3
2022-11-10T09:19:19.000Z,30.8
2022-11-10T09:20:36.000Z,32.6
2022-11-10T09:21:52.000Z,37.6
2022-11-10T09:23:08.570Z,35.8
2022-11-10T09:24:24.730Z,42.3
2022-11-10T09:25:40.000Z,38.7
2022-11-10T09:26:57.011Z,40
2022-11-10T09:28:12.000Z,31.7
2022-11-10T09:29:29.000Z,33.1
2022-11-10T09:30:45.453Z,31.2
2022-11-10T09:32:00.000Z,35.7
2022-11-10T09:33:16.000Z,34
2022-11-10T09:34:32.000Z,25.8
2022-11-10T09:35:48.000Z,49.4
2022-11-10T09:37:04.000Z,39.9
2022-11-10T09:38:21.350Z,35.6
2022-11-10T09:39:37.000Z,39.3
2022-11-10T09:40:53.000Z,30.1
2022-11-10T09:42:09.000Z,33.4
2022-11-10T09:43:25.000Z,26.9
2022-11-10T09:44:42.081Z,31.4
2022-11-10T09:45:58.000Z,35.4
2022-11-10T09:47:14.000Z,33.5
2022-11-10T09:48:29.000Z,34.8
2022-11-10T09:49:45.000Z,29.2
2022-11-10T09:51:01.840Z,38.9
2022-11-10T09:52:17.982Z,31.9
2022-11-10T09:53:34.138Z,38.7
2022-11-10T09:54:50.000Z,32.1
2022-11-10T09:56:06.000Z,33.1
2022-11-10T09:57:22.000Z,32.2
2022-11-10T09:58:38.000Z,34
2022-11-10T09:59:54.000Z,32.6
2022-11-10T10:01:10.000Z,32.8
2022-11-10T10:02:26.000Z,41.7
2022-11-10T10:03:43.000Z,31.3
2022-11-10T10:04:58.000Z,32.5
2022-11-10T10:06:14.000Z,35
2022-11-10T10:07:30.000Z,38.7
2022-11-10T10:08:46.000Z,32.5
2022-11-10T10:10:02.000Z,42.1
2022-11-10T10:11:18.000Z,37.2
2022-11-10T10:12:34.000Z,40.2
2022-11-10T10:13:50.508Z,33.9
2022-11-10T10:15:06.000Z,30.9
2022-11-10T10:16:22.808Z,30
2022-11-10T10:17:38.000Z,37.9
2022-11-10T10:18:55.096Z,26.6
2022-11-10T10:20:11.000Z,33.8
2022-11-10T10:21:27.401Z,31.5
2022-11-10T10:22:43.000Z,34.2
2022-11-10T10:23:59.000Z,35.7
2022-11-10T10:25:15.000Z,33.3
2022-11-10T10:26:31.990Z,35.6
2022-11-10T10:27:47.000Z,34.5
2022-11-10T10:29:03.310Z,41.5
2022-11-10T10:30:19.435Z,39.8
2022-11-10T10:31:35.585Z,37.2
2022-11-10T10:32:51.732Z,33.1
2022-11-10T10:34:07.878Z,30.9
2022-11-10T10:35:23.000Z,37.2
2022-11-10T10:36:40.172Z,34.4
2022-11-10T10:37:56.000Z,29.7
2022-11-10T10:39:12.000Z,31.1
2022-11-10T10:40:28.000Z,30.1
2022-11-10T10:41:44.000Z,32.8
2022-11-10T10:43:00.000Z,29.9
2022-11-10T10:44:17.044Z,37.9
2022-11-10T10:45:31.000Z,27.8
2022-11-10T10:46:48.000Z,24.8
2022-11-10T10:48:04.000Z,28.9
2022-11-10T10:49:20.000Z,27
2022-11-10T10:50:36.000Z,25.6
2022-11-10T10:51:52.000Z,34.2
2022-11-10T10:53:08.000Z,31.8
2022-11-10T10:54:25.000Z,35.6
2022-11-10T10:55:41.000Z,35.6
2022-11-10T10:56:57.534Z,37
2022-11-10T10:58:13.000Z,31.9
2022-11-10T10:59:29.000Z,27.8
2022-11-10T11:00:45.000Z,29.6
2022-11-10T11:02:00.000Z,25.1
2022-11-10T11:03:17.279Z,24.2
2022-11-10T11:04:33.000Z,27.2
2022-11-10T11:05:49.000Z,25.3
2022-11-10T11:07:05.000Z,34.1
2022-11-10T11:08:21.000Z,28.1
2022-11-10T11:09:37.000Z,54.2
2022-11-10T11:10:53.000Z,31.4
2022-11-10T11:12:10.000Z,33.1
2022-11-10T11:13:26.000Z,34.5
2022-11-10T11:14:42.605Z,38
2022-11-10T11:15:58.000Z,27.4
2022-11-10T11:17:14.000Z,28.4
2022-11-10T11:18:29.000Z,30
2022-11-10T11:19:46.203Z,31.7
2022-11-10T11:21:02.000Z,36.1
2022-11-10T11:22:18.510Z,34.2
2022-11-10T11:23:34.648Z,37.5
2022-11-10T11:24:50.000Z,29.2
2022-11-10T11:26:06.000Z,30.1
2022-11-10T11:27:22.000Z,38.5
2022-11-10T11:28:39.000Z,32.3
2022-11-10T11:29:55.000Z,35.5
2022-11-10T11:31:11.000Z,36.3
2022-11-10T11:32:27.678Z,30
2022-11-10T11:33:43.000Z,31.3
2022-11-10T11:34:58.000Z,31.6
2022-11-10T11:36:15.153Z,37.1
2022-11-10T11:37:31.000Z,37.9
2022-11-10T11:38:47.000Z,32.6
2022-11-10T11:40:03.000Z,39.4
2022-11-10T11:41:19.000Z,34.8
2022-11-10T11:42:35.000Z,38.5
2022-11-10T11:43:51.000Z,37.2
2022-11-10T11:45:07.000Z,35.5
2022-11-10T11:46:24.000Z,30.3
2022-11-10T11:47:40.458Z,39.5
2022-11-10T11:48:56.000Z,38.4
2022-11-10T11:50:12.000Z,33.7
2022-11-10T11:51:27.000Z,31
2022-11-10T11:52:43.000Z,28.3
2022-11-10T11:54:00.200Z,30.7
2022-11-10T11:55:16.354Z,34.5
2022-11-10T11:56:32.000Z,37
2022-11-10T11:57:48.810Z,34.7
2022-11-10T11:59:04.000Z,35
2022-11-10T12:00:20.000Z,29.1
2022-11-10T12:01:37.080Z,32.9
2022-11-10T12:02:53.000Z,29.9
2022-11-10T12:04:09.000Z,38
2022-11-10T12:05:25.525Z,30
2022-11-10T12:06:41.000Z,33.5
2022-11-10T12:07:56.000Z,39.2
2022-11-10T12:09:12.000Z,33.3
2022-11-10T12:10:29.127Z,39.3
2022-11-10T12:11:45.000Z,34.3
2022-11-10T12:13:01.000Z,30.1
2022-11-10T12:14:17.000Z,40.3
2022-11-10T12:15:33.000Z,36.5
2022-11-10T12:16:49.867Z,30.2
2022-11-10T12:18:05.000Z,28.7
2022-11-10T12:19:21.000Z,38.7
2022-11-10T12:20:38.000Z,32.7
2022-11-10T12:21:54.450Z,32.2
2022-11-10T12:23:10.000Z,29.5
2022-11-10T12:24:25.000Z,44.9
2022-11-10T12:25:41.000Z,37
2022-11-10T12:26:57.000Z,32.3
2022-11-10T12:28:13.000Z,31.6
2022-11-10T12:29:30.000Z,38.3
2022-11-10T12:30:46.000Z,35.4
2022-11-10T12:32:02.000Z,35.6
2022-11-10T12:33:18.000Z,37.1
2022-11-10T12:34:34.000Z,44.5
2022-11-10T12:35:50.000Z,37.5
2022-11-10T12:37:07.000Z,40.8
2022-11-10T12:38:23.536Z,36
2022-11-10T12:39:39.000Z,32
2022-11-10T12:40:54.693Z,47.3
2022-11-10T12:42:10.000Z,32.2
2022-11-10T12:43:26.000Z,39.7
2022-11-10T12:44:42.000Z,35.8
2022-11-10T12:45:59.278Z,29.9
2022-11-10T12:47:15.000Z,43.8
2022-11-10T12:48:31.000Z,36.4
2022-11-10T12:49:47.718Z,32.6
2022-11-10T12:51:03.000Z,27
2022-11-10T12:52:20.035Z,35.2
2022-11-10T12:53:35.000Z,30.2
2022-11-10T12:54:52.000Z,28
2022-11-10T12:56:08.000Z,40.7
2022-11-10T12:57:23.000Z,36.7
2022-11-10T12:58:39.000Z,30.6
2022-11-10T12:59:55.000Z,27.8
2022-11-10T13:01:11.000Z,32
2022-11-10T13:02:27.000Z,29
2022-11-10T13:03:44.000Z,35.1
2022-11-10T13:05:00.000Z,35
2022-11-10T13:06:16.000Z,29.7
2022-11-10T13:07:32.000Z,28.8
2022-11-10T13:08:48.000Z,35.1
2022-11-10T13:10:04.000Z,31
2022-11-10T13:11:21.238Z,30.4
2022-11-10T13:12:37.000Z,33.3
2022-11-10T13:13:52.544Z,29
2022-11-10T13:15:08.000Z,32.2
2022-11-10T13:16:24.000Z,37
2022-11-10T13:17:40.000Z,34.3
2022-11-10T13:18:57.127Z,30.5
2022-11-10T13:20:13.000Z,31.3
2022-11-10T13:21:29.000Z,30.1
2022-11-10T13:22:45.000Z,30.8
2022-11-10T13:24:01.721Z,34.8
2022-11-10T13:25:17.875Z,28.7
2022-11-10T13:26:34.021Z,34.9
2022-11-10T13:27:50.164Z,28.6
2022-11-10T13:29:06.306Z,29.9
2022-11-10T13:30:21.467Z,26.3
2022-11-10T13:31:37.000Z,28.6
2022-11-10T13:32:53.765Z,30.9
2022-11-10T13:34:09.913Z,30.6
2022-11-10T13:35:26.071Z,32
2022-11-10T13:36:41.000Z,41.6
2022-11-10T13:37:58.350Z,34.7
2022-11-10T13:39:14.000Z,25.3
2022-11-10T13:40:30.650Z,29.2
2022-11-10T13:41:46.000Z,28.3
2022-11-10T13:43:02.000Z,35.1
2022-11-10T13:44:18.000Z,34.4
2022-11-10T13:45:35.000Z,35.1
2022-11-10T13:46:50.000Z,29.8
2022-11-10T13:48:06.548Z,36
2022-11-10T13:49:22.692Z,31.8
2022-11-10T13:50:38.000Z,32.4
2022-11-10T13:51:54.000Z,26.5
2022-11-10T13:53:11.325Z,29.9
2022-11-10T13:54:27.000Z,36.1
2022-11-10T13:55:43.000Z,33.1
2022-11-10T13:56:59.575Z,32
2022-11-10T13:58:15.000Z,28.3
2022-11-10T13:59:31.000Z,41.8
2022-11-10T14:00:47.000Z,33.3
2022-11-10T14:02:03.000Z,33.1
2022-11-10T14:03:19.000Z,31.7
2022-11-10T14:04:35.000Z,32.6
2022-11-10T14:05:51.000Z,32.1
2022-11-10T14:07:07.000Z,29.2
2022-11-10T14:08:23.917Z,30.8
2022-11-10T14:09:40.070Z,40.3
2022-11-10T14:10:56.217Z,31.6
2022-11-10T14:12:12.355Z,35
2022-11-10T14:13:28.000Z,29.7
2022-11-10T14:14:44.000Z,33.8
2022-11-10T14:16:00.000Z,34.5
2022-11-10T14:17:16.721Z,34.7
2022-11-10T14:18:33.097Z,29.2
2022-11-10T14:19:48.266Z,29
2022-11-10T14:21:04.000Z,24.9
2022-11-10T14:22:20.000Z,29.5
2022-11-10T14:23:36.698Z,34.8
2022-11-10T14:24:52.000Z,25.9
2022-11-10T14:26:08.000Z,28.9
2022-11-10T14:27:23.000Z,26.4
2022-11-10T14:28:40.000Z,30.6
2022-11-10T14:29:56.000Z,30
2022-11-10T14:31:12.000Z,33
2022-11-10T14:32:28.000Z,31.7
2022-11-10T14:33:44.898Z,28.7
2022-11-10T14:35:00.000Z,30
2022-11-10T14:36:16.000Z,30.2
2022-11-10T14:37:33.000Z,26.8
2022-11-10T14:38:49.489Z,32.3
2022-11-10T14:40:05.639Z,29.7
2022-11-10T14:41:21.790Z,26.7
2022-11-10T14:42:37.932Z,30.5
2022-11-10T14:43:52.000Z,33.9
2022-11-10T14:45:09.000Z,27.2
2022-11-10T14:46:25.385Z,18.2
2022-11-10T14:47:41.000Z,34
2022-11-10T14:48:57.000Z,30.5
2022-11-10T14:50:13.000Z,22.6
2022-11-10T14:51:29.000Z,23.4
2022-11-10T14:52:45.000Z,26.6
2022-11-10T14:54:02.000Z,39.2
2022-11-10T14:55:18.000Z,25.1
2022-11-10T14:56:34.000Z,26.9
2022-11-10T14:57:50.000Z,32
2022-11-10T14:59:06.000Z,30.5
2022-11-10T15:00:22.031Z,32.3
2022-11-10T15:01:38.166Z,26
2022-11-10T15:02:54.317Z,29.4
2022-11-10T15:04:10.470Z,26
2022-11-10T15:05:26.000Z,21.2
2022-11-10T15:06:42.000Z,33.5
2022-11-10T15:07:58.000Z,29.2
2022-11-10T15:09:14.000Z,30.9
2022-11-10T15:10:30.000Z,28.6
2022-11-10T15:11:47.000Z,34
2022-11-10T15:13:03.000Z,23.6
2022-11-10T15:14:19.000Z,32.8
2022-11-10T15:15:35.000Z,31.1
2022-11-10T15:16:50.000Z,29.2
2022-11-10T15:18:06.000Z,23.5
2022-11-10T15:19:23.000Z,31.7
2022-11-10T15:20:39.000Z,23.7
2022-11-10T15:21:55.000Z,28.5
2022-11-10T15:23:11.000Z,27.1
2022-11-10T15:24:27.000Z,27.4
2022-11-10T15:25:43.000Z,24.7
2022-11-10T15:27:00.129Z,23.8
2022-11-10T15:28:16.283Z,23.7
2022-11-10T15:29:32.000Z,21.4
2022-11-10T15:30:48.000Z,24.5
2022-11-10T15:32:04.000Z,25.8
2022-11-10T15:33:19.000Z,22.2
2022-11-10T15:34:35.000Z,25.3
2022-11-10T15:35:51.000Z,25.5
2022-11-10T15:37:08.324Z,26.2
2022-11-10T15:38:24.459Z,29
2022-11-10T15:39:40.000Z,26.9
2022-11-10T15:40:56.000Z,20.2
2022-11-10T15:42:12.902Z,22.6
2022-11-10T15:43:28.000Z,24.5
2022-11-10T15:44:44.000Z,22.2
2022-11-10T15:46:01.000Z,31
2022-11-10T15:47:17.000Z,22
2022-11-10T15:48:33.000Z,22
2022-11-10T15:49:48.804Z,23.5
2022-11-10T15:51:04.000Z,22.3
2022-11-10T15:52:20.000Z,30.9
2022-11-10T15:53:37.223Z,21.4
2022-11-10T15:54:53.000Z,29.8
2022-11-10T15:56:09.000Z,22
2022-11-10T15:57:25.000Z,24.9
2022-11-10T15:58:41.000Z,24.8
2022-11-10T15:59:57.000Z,21.5
2022-11-10T16:01:13.000Z,28.1
2022-11-10T16:02:30.000Z,29.6
2022-11-10T16:03:46.000Z,28.8
2022-11-10T16:05:02.000Z,30.9
2022-11-10T16:06:17.000Z,23.4
2022-11-10T16:07:33.000Z,30.1
2022-11-10T16:08:49.989Z,24.2
2022-11-10T16:10:05.000Z,28.3
2022-11-10T16:11:22.292Z,24.5
2022-11-10T16:12:38.429Z,25.5
2022-11-10T16:13:54.000Z,24.1
2022-11-10T16:15:10.000Z,33.5
2022-11-10T16:16:26.000Z,28.8
2022-11-10T16:17:42.000Z,30.3
2022-11-10T16:18:58.000Z,26.3
2022-11-10T16:20:15.000Z,28.1
2022-11-10T16:21:31.000Z,33.7
2022-11-10T16:22:46.616Z,27.7
2022-11-10T16:24:02.000Z,32
2022-11-10T16:25:18.911Z,28.4
2022-11-10T16:26:35.045Z,28.3
2022-11-10T16:27:50.000Z,30.4
2022-11-10T16:29:07.000Z,23.1
2022-11-10T16:30:23.000Z,32
2022-11-10T16:31:39.000Z,27.5
2022-11-10T16:32:55.000Z,29.4
2022-11-10T16:34:11.000Z,26.6
2022-11-10T16:35:27.000Z,24.6
2022-11-10T16:36:43.000Z,31.6
2022-11-10T16:38:00.000Z,31.5
2022-11-10T16:39:15.510Z,28.6
2022-11-10T16:40:31.000Z,30.2
2022-11-10T16:41:47.000Z,23.7
2022-11-10T16:43:03.000Z,26.3
2022-11-10T16:44:20.095Z,33.4
2022-11-10T16:45:36.000Z,30.7
2022-11-10T16:46:52.000Z,29
2022-11-10T16:48:08.000Z,31.5
2022-11-10T16:49:24.000Z,35.1
2022-11-10T16:50:40.000Z,23.4
2022-11-10T16:51:56.964Z,44.3
2022-11-10T16:53:12.000Z,28.2
2022-11-10T16:54:29.261Z,32.2
2022-11-10T16:55:44.000Z,29.4
2022-11-10T16:57:00.561Z,35.9
2022-11-10T16:58:16.000Z,27.5
2022-11-10T16:59:32.000Z,27.3
2022-11-10T17:00:48.000Z,28.1